createdAt,value
2016-12-05T00:00:51.264Z,12.52
2016-12-05T00:01:51.007Z,12.43
2016-12-05T00:02:51.349Z,12.24
2016-12-05T00:03:50.974Z,12.34
2016-12-05T00:04:51.034Z,12.24
2016-12-05T00:05:51.350Z,12.24
2016-12-05T00:06:51.434Z,12.24
2016-12-05T00:07:51.418Z,12.34
2016-12-05T00:08:51.370Z,12.24
2016-12-05T00:09:51.371Z,12.14
2016-12-05T00:10:51.069Z,12.24
2016-12-05T00:11:51.126Z,12.24
2016-12-05T00:12:51.382Z,12.52
2016-12-05T00:13:51.460Z,12.24
2016-12-05T00:14:51.099Z,12.34
2016-12-05T00:15:51.285Z,12.52
2016-12-05T00:16:51.506Z,12.52
2016-12-05T00:17:51.432Z,12.14
2016-12-05T00:18:51.466Z,12.52
2016-12-05T00:19:51.449Z,12.34
2016-12-05T00:20:51.572Z,12.24
2016-12-05T00:21:51.147Z,12.34
2016-12-05T00:22:51.638Z,12.14
2016-12-05T00:23:51.112Z,12.62
2016-12-05T00:24:51.431Z,12.52
2016-12-05T00:25:51.489Z,12.62
2016-12-05T00:26:51.493Z,12.24
2016-12-05T00:27:51.261Z,12.24
2016-12-05T00:28:51.148Z,12.34
2016-12-05T00:29:51.714Z,12.52
2016-12-05T00:30:51.163Z,12.34
2016-12-05T00:31:51.243Z,12.43
2016-12-05T00:32:51.575Z,12.43
2016-12-05T00:33:51.522Z,12.52
2016-12-05T00:34:51.360Z,12.24
2016-12-05T00:35:51.559Z,12.34
2016-12-05T00:36:51.938Z,12.24
2016-12-05T00:37:51.261Z,12.24
2016-12-05T00:38:51.696Z,12.24
2016-12-05T00:39:51.537Z,12.24
2016-12-05T00:40:51.280Z,12.14
2016-12-05T00:41:51.716Z,12.34
2016-12-05T00:42:51.246Z,12.52
2016-12-05T00:43:51.305Z,12.24
2016-12-05T00:44:51.656Z,12.34
2016-12-05T00:45:51.780Z,12.52
2016-12-05T00:46:51.275Z,12.52
2016-12-05T00:47:51.285Z,12.24
2016-12-05T00:48:51.630Z,12.34
2016-12-05T00:49:51.318Z,12.23
2016-12-05T00:50:51.724Z,12.43
2016-12-05T00:51:51.690Z,12.43
2016-12-05T00:52:51.435Z,12.62
2016-12-05T00:53:51.639Z,12.52
2016-12-05T00:54:51.399Z,12.52
2016-12-05T00:55:51.399Z,12.34
2016-12-05T00:56:51.397Z,12.34
2016-12-05T00:57:51.780Z,12.52
2016-12-05T00:58:51.753Z,12.43
2016-12-05T00:59:51.835Z,12.34
2016-12-05T01:00:51.439Z,12.34
2016-12-05T01:01:51.382Z,12.24
2016-12-05T01:02:51.440Z,12.04
2016-12-05T01:03:51.407Z,12.24
2016-12-05T01:04:51.479Z,12.05
2016-12-05T01:05:51.815Z,12.34
2016-12-05T01:06:52.081Z,12.24
2016-12-05T01:07:51.867Z,12.34
2016-12-05T01:08:51.482Z,12.44
2016-12-05T01:09:51.799Z,12.34
2016-12-05T01:10:51.543Z,12.15
2016-12-05T01:11:51.845Z,11.95
2016-12-05T01:12:51.866Z,12.24
2016-12-05T01:13:51.730Z,12.24
2016-12-05T01:14:51.916Z,12.04
2016-12-05T01:15:51.878Z,12.24
2016-12-05T01:16:51.883Z,12.24
2016-12-05T01:17:51.871Z,12.24
2016-12-05T01:18:51.506Z,12.24
2016-12-05T01:19:51.989Z,12.24
2016-12-05T01:20:51.842Z,12.24
2016-12-05T01:21:51.601Z,12.24
2016-12-05T01:22:51.846Z,12.04
2016-12-05T01:23:52.008Z,11.94
2016-12-05T01:24:51.927Z,11.85
2016-12-05T01:25:51.751Z,11.94
2016-12-05T01:26:51.940Z,11.94
2016-12-05T01:27:51.985Z,11.66
2016-12-05T01:28:51.624Z,11.94
2016-12-05T01:29:51.921Z,12.24
2016-12-05T01:30:51.658Z,12.34
2016-12-05T01:31:52.016Z,12.43
2016-12-05T01:32:52.541Z,11.94
2016-12-05T01:33:51.924Z,11.55
2016-12-05T01:34:52.140Z,11.55
2016-12-05T01:35:51.630Z,11.76
2016-12-05T01:36:51.943Z,11.55
2016-12-05T01:37:51.820Z,11.56
2016-12-05T01:38:52.008Z,11.85
2016-12-05T01:39:52.973Z,11.76
2016-12-05T01:40:52.007Z,11.76
2016-12-05T01:41:52.064Z,11.76
2016-12-05T01:42:52.130Z,11.65
2016-12-05T01:43:51.682Z,11.65
2016-12-05T01:44:52.120Z,11.85
2016-12-05T01:45:52.436Z,11.95
2016-12-05T01:46:52.174Z,11.66
2016-12-05T01:47:51.861Z,11.75
2016-12-05T01:48:52.104Z,11.65
2016-12-05T01:49:52.108Z,11.66
2016-12-05T01:50:51.735Z,12.24
2016-12-05T01:51:51.774Z,11.94
2016-12-05T01:52:51.807Z,12.43
2016-12-05T01:53:53.071Z,11.94
2016-12-05T01:54:51.824Z,12.04
2016-12-05T01:55:51.768Z,11.85
2016-12-05T01:56:51.854Z,12.43
2016-12-05T01:57:51.829Z,11.85
2016-12-05T01:58:52.257Z,11.85
2016-12-05T01:59:51.878Z,11.55
2016-12-05T02:00:51.903Z,11.65
2016-12-05T02:01:51.955Z,11.55
2016-12-05T02:02:52.130Z,11.94
2016-12-05T02:03:52.441Z,11.65
2016-12-05T02:04:52.207Z,11.94
2016-12-05T02:05:52.175Z,11.56
2016-12-05T02:06:51.886Z,11.65
2016-12-05T02:07:52.213Z,11.85
2016-12-05T02:08:51.963Z,11.66
2016-12-05T02:09:52.304Z,11.94
2016-12-05T02:10:51.971Z,11.85
2016-12-05T02:11:52.205Z,11.94
2016-12-05T02:12:51.965Z,11.85
2016-12-05T02:13:52.220Z,11.85
2016-12-05T02:14:52.313Z,11.65
2016-12-05T02:15:52.294Z,11.55
2016-12-05T02:16:51.966Z,11.56
2016-12-05T02:17:52.413Z,11.85
2016-12-05T02:18:52.383Z,11.94
2016-12-05T02:19:52.013Z,11.55
2016-12-05T02:20:51.985Z,11.85
2016-12-05T02:21:52.080Z,11.85
2016-12-05T02:22:53.432Z,11.94
2016-12-05T02:23:52.330Z,11.75
2016-12-05T02:24:52.430Z,12.24
2016-12-05T02:25:52.346Z,12.24
2016-12-05T02:26:52.489Z,12.14
2016-12-05T02:27:52.078Z,11.94
2016-12-05T02:28:52.472Z,11.75
2016-12-05T02:29:52.089Z,11.65
2016-12-05T02:30:52.395Z,11.65
2016-12-05T02:31:52.423Z,11.55
2016-12-05T02:32:52.341Z,11.85
2016-12-05T02:33:52.472Z,11.75
2016-12-05T02:34:53.555Z,11.85
2016-12-05T02:35:52.137Z,11.65
2016-12-05T02:36:52.479Z,11.85
2016-12-05T02:37:52.206Z,11.94
2016-12-05T02:38:52.477Z,11.75
2016-12-05T02:39:52.428Z,11.94
2016-12-05T02:40:52.544Z,11.85
2016-12-05T02:41:52.547Z,12.04
2016-12-05T02:42:52.513Z,11.76
2016-12-05T02:43:52.544Z,11.95
2016-12-05T02:44:52.527Z,11.85
2016-12-05T02:45:52.248Z,11.76
2016-12-05T02:46:52.164Z,11.36
2016-12-05T02:47:52.233Z,11.36
2016-12-05T02:48:52.252Z,12.04
2016-12-05T02:49:52.364Z,11.94
2016-12-05T02:50:52.262Z,11.65
2016-12-05T02:51:52.264Z,11.65
2016-12-05T02:52:52.488Z,11.75
2016-12-05T02:53:52.589Z,11.75
2016-12-05T02:54:52.274Z,11.75
2016-12-05T02:55:52.689Z,11.75
2016-12-05T02:56:52.625Z,11.85
2016-12-05T02:57:52.590Z,11.75
2016-12-05T02:58:53.785Z,11.65
2016-12-05T02:59:52.586Z,11.56
2016-12-05T03:00:52.651Z,11.36
2016-12-05T03:01:52.704Z,11.85
2016-12-05T03:02:52.785Z,11.46
2016-12-05T03:03:52.562Z,11.46
2016-12-05T03:04:52.407Z,11.46
2016-12-05T03:05:52.429Z,11.46
2016-12-05T03:06:52.911Z,11.46
2016-12-05T03:07:52.692Z,11.36
2016-12-05T03:08:53.293Z,11.46
2016-12-05T03:09:52.430Z,11.46
2016-12-05T03:10:52.320Z,11.46
2016-12-05T03:11:52.322Z,11.36
2016-12-05T03:12:52.400Z,11.66
2016-12-05T03:13:52.984Z,11.76
2016-12-05T03:14:52.656Z,11.85
2016-12-05T03:15:52.397Z,11.56
2016-12-05T03:16:52.517Z,11.66
2016-12-05T03:17:52.435Z,11.56
2016-12-05T03:18:52.668Z,11.66
2016-12-05T03:19:52.788Z,11.66
2016-12-05T03:20:52.799Z,11.76
2016-12-05T03:21:52.842Z,11.65
2016-12-05T03:22:52.889Z,11.66
2016-12-05T03:23:52.764Z,11.46
2016-12-05T03:24:52.884Z,11.36
2016-12-05T03:25:52.844Z,11.27
2016-12-05T03:26:52.826Z,11.36
2016-12-05T03:27:52.875Z,11.27
2016-12-05T03:28:53.355Z,11.36
2016-12-05T03:29:52.862Z,11.36
2016-12-05T03:30:52.852Z,11.27
2016-12-05T03:31:52.953Z,11.56
2016-12-05T03:32:52.907Z,11.18
2016-12-05T03:33:53.699Z,11.18
2016-12-05T03:34:52.878Z,11.36
2016-12-05T03:35:52.885Z,11.18
2016-12-05T03:36:52.533Z,10.98
2016-12-05T03:37:52.902Z,11.18
2016-12-05T03:38:52.979Z,11.18
2016-12-05T03:39:52.585Z,11.08
2016-12-05T03:40:53.009Z,11.18
2016-12-05T03:41:53.029Z,11.36
2016-12-05T03:42:52.877Z,11.46
2016-12-05T03:43:54.046Z,11.36
2016-12-05T03:44:52.998Z,10.98
2016-12-05T03:45:52.960Z,11.18
2016-12-05T03:46:52.603Z,11.46
2016-12-05T03:47:52.997Z,11.46
2016-12-05T03:48:53.009Z,11.46
2016-12-05T03:49:52.998Z,11.36
2016-12-05T03:50:53.026Z,11.08
2016-12-05T03:51:52.903Z,11.36
2016-12-05T03:52:52.994Z,11.76
2016-12-05T03:53:52.606Z,11.36
2016-12-05T03:54:53.096Z,11.36
2016-12-05T03:55:52.931Z,11.46
2016-12-05T03:56:52.627Z,11.08
2016-12-05T03:57:53.084Z,11.66
2016-12-05T03:58:53.008Z,11.46
2016-12-05T03:59:52.734Z,11.36
2016-12-05T04:00:52.768Z,11.27
2016-12-05T04:01:53.325Z,11.27
2016-12-05T04:02:52.982Z,11.18
2016-12-05T04:03:53.031Z,11.36
2016-12-05T04:04:53.046Z,11.36
2016-12-05T04:05:53.056Z,11.18
2016-12-05T04:06:53.059Z,11.27
2016-12-05T04:07:52.812Z,11.66
2016-12-05T04:08:53.096Z,11.75
2016-12-05T04:09:53.081Z,11.36
2016-12-05T04:10:52.847Z,11.46
2016-12-05T04:11:53.206Z,11.36
2016-12-05T04:12:52.843Z,11.36
2016-12-05T04:13:53.139Z,11.27
2016-12-05T04:14:53.128Z,11.18
2016-12-05T04:15:52.926Z,11.36
2016-12-05T04:16:53.081Z,11.18
2016-12-05T04:17:53.193Z,11.27
2016-12-05T04:18:52.829Z,11.36
2016-12-05T04:19:53.155Z,11.27
2016-12-05T04:20:53.222Z,11.27
2016-12-05T04:21:53.191Z,11.27
2016-12-05T04:22:53.355Z,11.36
2016-12-05T04:23:53.318Z,11.17
2016-12-05T04:24:52.873Z,11.27
2016-12-05T04:25:53.562Z,11.17
2016-12-05T04:26:52.921Z,11.27
2016-12-05T04:27:53.243Z,11.27
2016-12-05T04:28:54.058Z,11.46
2016-12-05T04:29:53.303Z,11.46
2016-12-05T04:30:54.420Z,11.46
2016-12-05T04:31:52.993Z,11.46
2016-12-05T04:32:53.359Z,11.27
2016-12-05T04:33:53.071Z,11.36
2016-12-05T04:34:52.971Z,11.46
2016-12-05T04:35:53.362Z,11.36
2016-12-05T04:36:53.328Z,11.55
2016-12-05T04:37:53.399Z,11.18
2016-12-05T04:38:53.922Z,11.56
2016-12-05T04:39:53.318Z,11.27
2016-12-05T04:40:52.937Z,11.46
2016-12-05T04:41:53.105Z,11.46
2016-12-05T04:42:53.045Z,11.08
2016-12-05T04:43:53.309Z,11.27
2016-12-05T04:44:53.326Z,11.18
2016-12-05T04:45:52.974Z,11.36
2016-12-05T04:46:53.031Z,11.46
2016-12-05T04:47:53.153Z,11.18
2016-12-05T04:48:53.074Z,11.27
2016-12-05T04:49:53.150Z,11.36
2016-12-05T04:50:53.398Z,11.46
2016-12-05T04:51:53.403Z,11.18
2016-12-05T04:52:53.352Z,10.88
2016-12-05T04:53:53.524Z,11.18
2016-12-05T04:54:53.136Z,11.08
2016-12-05T04:55:53.482Z,11.46
2016-12-05T04:56:53.416Z,11.17
2016-12-05T04:57:53.482Z,11.36
2016-12-05T04:58:53.424Z,11.27
2016-12-05T04:59:53.488Z,11.55
2016-12-05T05:00:53.440Z,11.46
2016-12-05T05:01:53.588Z,11.18
2016-12-05T05:02:53.547Z,11.27
2016-12-05T05:03:53.259Z,11.27
2016-12-05T05:04:53.442Z,11.17
2016-12-05T05:05:53.525Z,11.18
2016-12-05T05:06:53.546Z,11.08
2016-12-05T05:07:53.632Z,11.36
2016-12-05T05:08:53.528Z,11.27
2016-12-05T05:09:53.228Z,11.08
2016-12-05T05:10:53.553Z,11.18
2016-12-05T05:11:53.465Z,11.07
2016-12-05T05:12:53.914Z,10.88
2016-12-05T05:13:53.270Z,10.88
2016-12-05T05:14:53.307Z,11.08
2016-12-05T05:15:53.540Z,11.08
2016-12-05T05:16:53.672Z,11.08
2016-12-05T05:17:53.620Z,11.08
2016-12-05T05:18:53.609Z,10.98
2016-12-05T05:19:53.523Z,10.88
2016-12-05T05:20:53.319Z,10.98
2016-12-05T05:21:53.354Z,11.18
2016-12-05T05:22:53.600Z,10.88
2016-12-05T05:23:53.647Z,10.98
2016-12-05T05:24:53.559Z,11.08
2016-12-05T05:25:53.320Z,11.08
2016-12-05T05:26:53.625Z,11.18
2016-12-05T05:27:53.753Z,11.18
2016-12-05T05:28:53.667Z,10.98
2016-12-05T05:29:53.280Z,11.18
2016-12-05T05:30:53.726Z,11.27
2016-12-05T05:31:53.659Z,11.27
2016-12-05T05:32:53.406Z,11.18
2016-12-05T05:33:53.452Z,11.27
2016-12-05T05:34:53.368Z,11.27
2016-12-05T05:35:53.639Z,11.18
2016-12-05T05:36:53.831Z,10.98
2016-12-05T05:37:53.674Z,11.08
2016-12-05T05:38:53.806Z,10.98
2016-12-05T05:39:53.436Z,11.08
2016-12-05T05:40:53.874Z,11.08
2016-12-05T05:41:53.762Z,10.88
2016-12-05T05:42:53.782Z,10.98
2016-12-05T05:43:54.195Z,11.27
2016-12-05T05:44:53.831Z,11.18
2016-12-05T05:45:53.910Z,11.27
2016-12-05T05:46:53.550Z,11.27
2016-12-05T05:47:53.582Z,11.08
2016-12-05T05:48:53.840Z,11.18
2016-12-05T05:49:53.786Z,11.36
2016-12-05T05:50:53.743Z,11.36
2016-12-05T05:51:53.438Z,11.08
2016-12-05T05:52:54.062Z,11.08
2016-12-05T05:53:53.816Z,11.36
2016-12-05T05:54:53.608Z,11.27
2016-12-05T05:55:53.966Z,10.98
2016-12-05T05:56:54.019Z,10.98
2016-12-05T05:57:53.644Z,10.98
2016-12-05T05:58:53.892Z,10.98
2016-12-05T05:59:53.968Z,10.98
2016-12-05T06:00:54.019Z,10.98
2016-12-05T06:01:53.511Z,10.98
2016-12-05T06:02:53.516Z,10.98
2016-12-05T06:03:53.901Z,10.78
2016-12-05T06:04:54.012Z,10.88
2016-12-05T06:05:53.849Z,10.98
2016-12-05T06:06:53.622Z,10.98
2016-12-05T06:07:53.710Z,11.27
2016-12-05T06:08:53.666Z,10.98
2016-12-05T06:09:53.944Z,10.98
2016-12-05T06:10:54.120Z,10.88
2016-12-05T06:11:54.060Z,10.88
2016-12-05T06:12:53.904Z,10.98
2016-12-05T06:13:53.994Z,11.08
2016-12-05T06:14:53.963Z,11.08
2016-12-05T06:15:53.748Z,10.98
2016-12-05T06:16:54.888Z,10.88
2016-12-05T06:17:54.161Z,10.88
2016-12-05T06:18:54.033Z,10.98
2016-12-05T06:19:54.110Z,11.08
2016-12-05T06:20:53.785Z,10.78
2016-12-05T06:21:54.085Z,10.98
2016-12-05T06:22:54.124Z,11.08
2016-12-05T06:23:53.667Z,10.98
2016-12-05T06:24:54.039Z,10.98
2016-12-05T06:25:54.128Z,10.98
2016-12-05T06:26:54.111Z,10.88
2016-12-05T06:27:53.796Z,10.78
2016-12-05T06:28:54.089Z,10.98
2016-12-05T06:29:53.776Z,10.88
2016-12-05T06:30:53.881Z,10.98
2016-12-05T06:31:54.251Z,10.98
2016-12-05T06:32:54.090Z,10.98
2016-12-05T06:33:53.784Z,10.98
2016-12-05T06:34:54.167Z,11.36
2016-12-05T06:35:54.115Z,11.27
2016-12-05T06:36:53.806Z,11.27
2016-12-05T06:37:54.236Z,11.18
2016-12-05T06:38:54.135Z,11.36
2016-12-05T06:39:54.297Z,11.18
2016-12-05T06:40:54.273Z,11.18
2016-12-05T06:41:53.792Z,11.27
2016-12-05T06:42:54.162Z,11.27
2016-12-05T06:43:54.117Z,11.27
2016-12-05T06:44:54.215Z,11.36
2016-12-05T06:45:54.227Z,10.98
2016-12-05T06:46:54.039Z,10.98
2016-12-05T06:47:53.833Z,10.88
2016-12-05T06:48:54.257Z,11.36
2016-12-05T06:49:54.248Z,10.88
2016-12-05T06:50:53.958Z,10.98
2016-12-05T06:51:54.194Z,10.88
2016-12-05T06:52:54.340Z,11.08
2016-12-05T06:53:54.323Z,10.98
2016-12-05T06:54:54.197Z,10.98
2016-12-05T06:55:54.255Z,10.98
2016-12-05T06:56:54.302Z,10.98
2016-12-05T06:57:54.218Z,10.98
2016-12-05T06:58:54.059Z,10.98
2016-12-05T06:59:54.440Z,10.98
2016-12-05T07:00:53.928Z,10.88
2016-12-05T07:01:54.333Z,11.08
2016-12-05T07:02:54.255Z,10.78
2016-12-05T07:03:54.309Z,10.98
2016-12-05T07:04:54.271Z,10.98
2016-12-05T07:05:54.369Z,10.98
2016-12-05T07:06:54.390Z,10.98
2016-12-05T07:07:54.342Z,10.98
2016-12-05T07:08:54.494Z,10.98
2016-12-05T07:09:54.161Z,11.08
2016-12-05T07:10:54.311Z,11.27
2016-12-05T07:11:54.369Z,11.36
2016-12-05T07:12:54.128Z,11.18
2016-12-05T07:13:54.465Z,11.18
2016-12-05T07:14:54.449Z,11.27
2016-12-05T07:15:54.347Z,11.08
2016-12-05T07:16:54.039Z,10.88
2016-12-05T07:17:54.427Z,10.88
2016-12-05T07:18:54.474Z,10.88
2016-12-05T07:19:54.130Z,10.98
2016-12-05T07:20:54.470Z,10.78
2016-12-05T07:21:54.438Z,11.08
2016-12-05T07:22:54.082Z,10.88
2016-12-05T07:23:54.464Z,10.98
2016-12-05T07:24:54.202Z,10.98
2016-12-05T07:25:54.471Z,10.88
2016-12-05T07:26:54.421Z,10.88
2016-12-05T07:27:54.173Z,10.78
2016-12-05T07:28:54.497Z,10.59
2016-12-05T07:29:54.176Z,10.5
2016-12-05T07:30:54.455Z,10.3
2016-12-05T07:31:54.198Z,10.41
2016-12-05T07:32:54.576Z,10.31
2016-12-05T07:33:54.541Z,9.63
2016-12-05T07:34:54.517Z,9.63
2016-12-05T07:35:54.248Z,9.54
2016-12-05T07:36:54.284Z,9.25
2016-12-05T07:37:54.553Z,8.86
2016-12-05T07:38:54.323Z,8.96
2016-12-05T07:39:54.327Z,9.06
2016-12-05T07:40:55.511Z,8.87
2016-12-05T07:41:54.581Z,8.87
2016-12-05T07:42:54.276Z,8.77
2016-12-05T07:43:54.279Z,8.77
2016-12-05T07:44:54.242Z,8.58
2016-12-05T07:45:54.295Z,8.77
2016-12-05T07:46:54.563Z,8.87
2016-12-05T07:47:54.574Z,9.06
2016-12-05T07:48:54.611Z,8.87
2016-12-05T07:49:54.273Z,8.97
2016-12-05T07:50:54.280Z,8.97
2016-12-05T07:51:54.438Z,9.26
2016-12-05T07:52:54.373Z,8.87
2016-12-05T07:53:54.302Z,8.77
2016-12-05T07:54:54.411Z,9.06
2016-12-05T07:55:54.402Z,9.16
2016-12-05T07:56:54.329Z,9.35
2016-12-05T07:57:54.473Z,9.45
2016-12-05T07:58:54.341Z,9.64
2016-12-05T07:59:54.715Z,9.54
2016-12-05T08:00:54.670Z,9.74
2016-12-05T08:01:54.363Z,9.44
2016-12-05T08:02:54.735Z,9.44
2016-12-05T08:03:54.694Z,9.93
2016-12-05T08:08:49.629Z,10.21
2016-12-05T08:09:49.638Z,10.41
2016-12-05T08:10:49.646Z,10.41
2016-12-05T08:11:49.655Z,10.21
2016-12-05T08:12:49.347Z,10.41
2016-12-05T08:13:49.354Z,10.31
2016-12-05T08:14:49.677Z,10.6
2016-12-05T08:15:50.786Z,10.69
2016-12-05T08:16:49.691Z,10.69
2016-12-05T08:17:49.536Z,10.5
2016-12-05T08:18:49.394Z,10.4
2016-12-05T08:19:49.405Z,10.5
2016-12-05T08:20:49.772Z,10.79
2016-12-05T08:21:49.417Z,10.88
2016-12-05T08:22:49.424Z,10.98
2016-12-05T08:23:49.485Z,10.98
2016-12-05T08:24:49.752Z,11.18
2016-12-05T08:25:49.447Z,11.08
2016-12-05T08:26:50.319Z,10.98
2016-12-05T08:27:49.825Z,11.46
2016-12-05T08:28:49.782Z,11.17
2016-12-05T08:29:49.793Z,11.46
2016-12-05T08:30:49.486Z,11.36
2016-12-05T08:31:49.497Z,11.27
2016-12-05T08:32:49.500Z,11.55
2016-12-05T08:33:49.921Z,11.65
2016-12-05T08:34:49.517Z,11.55
2016-12-05T08:35:49.524Z,11.85
2016-12-05T08:36:49.536Z,11.65
2016-12-05T08:37:49.891Z,11.85
2016-12-05T08:38:49.861Z,11.85
2016-12-05T08:39:49.867Z,11.94
2016-12-05T08:40:49.874Z,11.55
2016-12-05T08:41:49.884Z,11.84
2016-12-05T08:42:49.674Z,11.65
2016-12-05T08:43:49.900Z,11.65
2016-12-05T08:44:49.958Z,11.84
2016-12-05T08:45:49.914Z,11.84
2016-12-05T08:46:49.920Z,11.65
2016-12-05T08:47:49.978Z,11.65
2016-12-05T08:48:49.936Z,11.84
2016-12-05T08:49:49.677Z,11.36
2016-12-05T08:50:51.001Z,11.55
2016-12-05T08:51:49.957Z,11.75
2016-12-05T08:52:50.013Z,11.27
2016-12-05T08:53:49.659Z,11.46
2016-12-05T08:54:49.669Z,11.36
2016-12-05T08:55:49.682Z,11.27
2016-12-05T08:56:49.999Z,11.65
2016-12-05T08:57:50.004Z,11.46
2016-12-05T08:58:49.751Z,11.36
2016-12-05T08:59:49.705Z,11.46
2016-12-05T09:00:50.076Z,11.55
2016-12-05T09:01:50.990Z,11.46
2016-12-05T09:02:50.043Z,11.66
2016-12-05T09:03:50.101Z,11.46
2016-12-05T09:04:50.061Z,11.66
2016-12-05T09:05:49.753Z,11.36
2016-12-05T09:06:50.125Z,11.76
2016-12-05T09:07:49.769Z,11.27
2016-12-05T09:08:50.139Z,11.95
2016-12-05T09:09:50.145Z,11.95
2016-12-05T09:10:51.197Z,11.56
2016-12-05T09:11:49.800Z,12.34
2016-12-05T09:12:50.513Z,12.43
2016-12-05T09:13:50.181Z,12.24
2016-12-05T09:14:50.186Z,12.34
2016-12-05T09:15:50.144Z,12.92
2016-12-05T09:16:50.154Z,13.49
2016-12-05T09:17:49.851Z,13.31
2016-12-05T09:18:50.169Z,13.01
2016-12-05T09:19:49.863Z,13.3
2016-12-05T09:20:49.871Z,13.4
2016-12-05T09:21:50.482Z,13.49
2016-12-05T09:22:49.888Z,13.2
2016-12-05T09:23:50.094Z,13.78
2016-12-05T09:24:49.904Z,13.98
2016-12-05T09:25:49.913Z,13.29
2016-12-05T09:26:50.289Z,13.68
2016-12-05T09:27:49.976Z,13.29
2016-12-05T09:28:50.246Z,13.78
2016-12-05T09:29:50.253Z,13.68
2016-12-05T09:30:50.261Z,13.68
2016-12-05T09:31:49.959Z,13.87
2016-12-05T09:32:50.677Z,14.16
2016-12-05T09:33:50.022Z,13.67
2016-12-05T09:34:50.345Z,14.15
2016-12-05T09:35:50.301Z,12.7
2016-12-05T09:36:50.043Z,13.17
2016-12-05T09:37:50.318Z,14.2
2016-12-05T09:38:50.320Z,16.19
2016-12-05T09:39:50.068Z,15.81
2016-12-05T09:40:50.336Z,15.64
2016-12-05T09:41:50.339Z,13.82
2016-12-05T09:42:50.084Z,12.68
2016-12-05T09:43:50.138Z,11.44
2016-12-05T09:44:50.048Z,10.38
2016-12-05T09:45:50.055Z,10.2
2016-12-05T09:46:50.057Z,9.91
2016-12-05T09:47:50.383Z,9.63
2016-12-05T09:48:50.074Z,8.95
2016-12-05T09:49:50.501Z,9.15
2016-12-05T09:50:50.452Z,8.76
2016-12-05T09:51:50.408Z,8.76
2016-12-05T09:52:50.466Z,9.06
2016-12-05T09:53:50.423Z,9.06
2016-12-05T09:54:50.119Z,9.06
2016-12-05T09:55:50.176Z,8.77
2016-12-05T09:56:51.474Z,9.16
2016-12-05T09:57:50.143Z,9.26
2016-12-05T09:58:50.462Z,8.97
2016-12-05T09:59:50.523Z,8.97
2016-12-05T10:00:50.169Z,9.06
2016-12-05T10:01:50.487Z,8.97
2016-12-05T10:02:50.492Z,8.87
2016-12-05T10:03:50.502Z,8.87
2016-12-05T10:04:50.243Z,8.96
2016-12-05T10:05:50.206Z,9.06
2016-12-05T10:06:50.527Z,9.64
2016-12-05T10:07:51.684Z,9.55
2016-12-05T10:08:50.279Z,9.55
2016-12-05T10:09:50.238Z,8.47
2016-12-05T10:10:50.244Z,9.7
2016-12-05T10:11:50.302Z,11.63
2016-12-05T10:12:50.307Z,10.57
2016-12-05T10:13:50.269Z,10.56
2016-12-05T10:14:50.614Z,11.04
2016-12-05T10:15:50.279Z,11.41
2016-12-05T10:16:50.283Z,12.18
2016-12-05T10:17:50.285Z,11.81
2016-12-05T10:18:51.245Z,10.66
2016-12-05T10:19:50.298Z,10.19
2016-12-05T10:20:50.620Z,10
2016-12-05T10:21:50.625Z,9.52
2016-12-05T10:22:50.679Z,9.72
2016-12-05T10:23:50.323Z,9.33
2016-12-05T10:24:50.379Z,9.62
2016-12-05T10:25:50.335Z,9.63
2016-12-05T10:26:50.660Z,9.63
2016-12-05T10:27:50.762Z,9.53
2016-12-05T10:28:50.657Z,9.63
2016-12-05T10:29:50.867Z,9.53
2016-12-05T10:30:50.685Z,9.53
2016-12-05T10:31:50.383Z,9.53
2016-12-05T10:32:50.387Z,9.63
2016-12-05T10:33:50.709Z,9.72
2016-12-05T10:34:50.765Z,9.72
2016-12-05T10:35:50.406Z,9.63
2016-12-05T10:36:50.411Z,9.53
2016-12-05T10:37:50.423Z,9.63
2016-12-05T10:38:51.893Z,9.63
2016-12-05T10:39:50.437Z,9.44
2016-12-05T10:40:50.643Z,9.53
2016-12-05T10:41:50.458Z,9.44
2016-12-05T10:42:50.821Z,9.53
2016-12-05T10:43:50.465Z,9.63
2016-12-05T10:44:50.839Z,9.73
2016-12-05T10:45:50.796Z,9.43
2016-12-05T10:46:50.541Z,9.53
2016-12-05T10:47:50.496Z,9.44
2016-12-05T10:48:50.865Z,9.44
2016-12-05T10:49:51.573Z,9.63
2016-12-05T10:50:50.831Z,9.83
2016-12-05T10:51:50.525Z,9.82
2016-12-05T10:52:50.844Z,10.12
2016-12-05T10:53:50.904Z,10.12
2016-12-05T10:54:50.860Z,10.11
2016-12-05T10:55:50.554Z,10.31
2016-12-05T10:56:50.877Z,10.02
2016-12-05T10:57:50.884Z,10.5
2016-12-05T10:58:50.892Z,10.6
2016-12-05T10:59:50.586Z,10.7
2016-12-05T11:00:51.443Z,10.89
2016-12-05T11:01:50.915Z,10.89
2016-12-05T11:02:50.923Z,10.99
2016-12-05T11:03:50.927Z,11.27
2016-12-05T11:04:50.623Z,11.08
2016-12-05T11:05:50.945Z,10.99
2016-12-05T11:06:50.967Z,11.47
2016-12-05T11:07:50.958Z,11.18
2016-12-05T11:08:50.967Z,11.36
2016-12-05T11:09:50.661Z,11.56
2016-12-05T11:10:50.718Z,11.27
2016-12-05T11:11:51.076Z,11.76
2016-12-05T11:12:51.014Z,11.56
2016-12-05T11:13:50.691Z,11.95
2016-12-05T11:14:51.012Z,11.95
2016-12-05T11:15:51.025Z,12.24
2016-12-05T11:16:51.026Z,12.24
2016-12-05T11:17:51.036Z,12.62
2016-12-05T11:18:51.050Z,12.24
2016-12-05T11:19:51.103Z,12.62
2016-12-05T11:20:50.749Z,12.43
2016-12-05T11:21:50.754Z,12.24
2016-12-05T11:22:50.762Z,12.62
2016-12-05T11:23:50.817Z,13.01
2016-12-05T11:24:50.775Z,12.52
2016-12-05T11:25:50.782Z,12.62
2016-12-05T11:26:50.789Z,12.52
2016-12-05T11:27:51.111Z,13.3
2016-12-05T11:28:50.882Z,13.1
2016-12-05T11:29:50.814Z,13.1
2016-12-05T11:30:50.822Z,13.2
2016-12-05T11:31:50.828Z,13.3
2016-12-05T11:32:50.837Z,13.49
2016-12-05T11:33:51.214Z,13.4
2016-12-05T11:34:50.849Z,13.49
2016-12-05T11:35:50.860Z,13.2
2016-12-05T11:36:50.868Z,13.3
2016-12-05T11:37:51.187Z,13.2
2016-12-05T11:38:51.245Z,13.3
2016-12-05T11:39:51.223Z,13.3
2016-12-05T11:40:51.228Z,13.1
2016-12-05T11:41:50.903Z,13.2
2016-12-05T11:42:50.964Z,13.4
2016-12-05T11:43:51.333Z,13.49
2016-12-05T11:44:50.927Z,13.4
2016-12-05T11:45:50.932Z,13.1
2016-12-05T11:46:50.944Z,12.62
2016-12-05T11:47:51.261Z,12.81
2016-12-05T11:48:50.956Z,12.62
2016-12-05T11:49:50.962Z,12.81
2016-12-05T11:50:50.973Z,12.82
2016-12-05T11:51:51.029Z,12.92
2016-12-05T11:52:50.991Z,12.82
2016-12-05T11:53:51.001Z,12.82
2016-12-05T11:54:51.312Z,12.52
2016-12-05T11:55:51.008Z,12.92
2016-12-05T11:56:51.016Z,12.52
2016-12-05T11:57:52.125Z,12.52
2016-12-05T11:58:51.343Z,12.72
2016-12-05T11:59:51.037Z,12.62
2016-12-05T12:00:51.358Z,12.82
2016-12-05T12:01:51.369Z,12.82
2016-12-05T12:02:51.111Z,12.92
2016-12-05T12:03:51.431Z,12.82
2016-12-05T12:04:51.078Z,12.82
2016-12-05T12:05:51.399Z,12.82
2016-12-05T12:06:51.142Z,12.92
2016-12-05T12:07:51.146Z,12.73
2016-12-05T12:08:52.068Z,12.73
2016-12-05T12:09:51.112Z,12.73
2016-12-05T12:10:51.120Z,12.82
2016-12-05T12:11:51.126Z,12.82
2016-12-05T12:12:51.448Z,12.82
2016-12-05T12:13:51.192Z,12.53
2016-12-05T12:14:51.464Z,13.12
2016-12-05T12:15:51.520Z,12.73
2016-12-05T12:16:51.476Z,12.53
2016-12-05T12:17:52.485Z,12.73
2016-12-05T12:18:51.230Z,12.73
2016-12-05T12:19:51.703Z,12.63
2016-12-05T12:20:51.509Z,12.63
2016-12-05T12:21:51.515Z,12.82
2016-12-05T12:22:51.523Z,12.92
2016-12-05T12:23:51.219Z,12.73
2016-12-05T12:24:51.225Z,13.12
2016-12-05T12:25:51.895Z,12.63
2016-12-05T12:26:51.553Z,12.53
2016-12-05T12:27:51.661Z,13.02
2016-12-05T12:28:52.269Z,12.92
2016-12-05T12:29:51.574Z,12.92
2016-12-05T12:30:51.582Z,13.12
2016-12-05T12:31:51.329Z,13.12
2016-12-05T12:32:51.649Z,13.41
2016-12-05T12:33:51.656Z,13.4
2016-12-05T12:34:51.306Z,13.11
2016-12-05T12:35:51.622Z,13.41
2016-12-05T12:36:51.315Z,13.5
2016-12-05T12:37:51.636Z,13.5
2016-12-05T12:38:51.644Z,13.4
2016-12-05T12:39:51.904Z,13.5
2016-12-05T12:40:51.659Z,13.4
2016-12-05T12:41:51.372Z,13.59
2016-12-05T12:42:51.677Z,13.4
2016-12-05T12:43:52.853Z,13.5
2016-12-05T12:44:51.686Z,13.21
2016-12-05T12:45:51.743Z,13.31
2016-12-05T12:46:51.441Z,13.21
2016-12-05T12:47:51.761Z,13.4
2016-12-05T12:48:51.721Z,13.21
2016-12-05T12:49:51.725Z,13.31
2016-12-05T12:50:51.793Z,13.21
2016-12-05T12:51:51.433Z,13.79
2016-12-05T12:52:51.438Z,13.4
2016-12-05T12:53:51.792Z,13.4
2016-12-05T12:54:52.914Z,13.69
2016-12-05T12:56:06.339Z,13.69
2016-12-05T12:56:51.522Z,13.4
2016-12-05T13:00:38.595Z,13.59
2016-12-05T13:01:38.355Z,13.59
2016-12-05T13:02:38.045Z,13.59
2016-12-05T13:03:38.368Z,13.98
2016-12-05T13:04:38.373Z,14.27